createdAt,value
2022-12-14T05:33:23.592Z,-2.00
2022-12-14T05:38:25.476Z,-2.10
2022-12-14T05:43:27.578Z,-2.00
2022-12-14T05:48:30.191Z,-2.00
2022-12-14T05:53:31.997Z,-2.00
2022-12-14T05:58:34.879Z,-2.00
2022-12-14T06:03:37.174Z,-2.00
2022-12-14T06:08:41.994Z,-2.00
2022-12-14T06:13:44.353Z,-2.00
2022-12-14T06:18:51.247Z,-2.00
2022-12-14T06:23:54.493Z,-2.00
2022-12-14T06:28:57.615Z,-2.00
2022-12-14T06:34:01.802Z,-2.00
2022-12-14T06:39:10.135Z,-2.00
2022-12-14T06:44:14.239Z,-1.90
2022-12-14T06:49:16.472Z,-1.90
2022-12-14T06:54:18.823Z,-1.80
2022-12-14T06:59:21.105Z,-1.80
2022-12-14T07:04:22.948Z,-1.70
2022-12-14T07:09:24.749Z,-1.70
2022-12-14T07:14:26.517Z,-1.80
2022-12-14T07:19:28.380Z,-1.80
2022-12-14T07:24:30.733Z,-1.80
2022-12-14T07:29:34.965Z,-1.80
2022-12-14T07:34:40.639Z,-1.80
2022-12-14T07:39:42.583Z,-1.90
2022-12-14T07:44:47.215Z,-1.90
2022-12-14T07:49:49.928Z,-1.90
2022-12-14T07:54:51.772Z,-2.00
2022-12-14T07:59:57.458Z,-2.00
2022-12-14T08:04:59.794Z,-2.00
2022-12-14T08:10:01.674Z,-2.00
2022-12-14T08:15:04.015Z,-2.10
2022-12-14T08:20:06.346Z,-2.20
2022-12-14T08:25:08.922Z,-2.30
2022-12-14T08:30:11.100Z,-2.30
2022-12-14T08:35:13.009Z,-2.40
2022-12-14T08:40:18.148Z,-2.50
2022-12-14T08:45:20.151Z,-2.60
2022-12-14T08:50:22.192Z,-2.60
2022-12-14T08:55:35.158Z,-2.60
2022-12-14T09:00:40.348Z,-2.60
2022-12-14T09:05:42.226Z,-2.60
2022-12-14T09:10:50.603Z,-2.70
2022-12-14T09:16:12.646Z,-2.70
2022-12-14T09:21:14.982Z,-2.60
2022-12-14T09:26:22.373Z,-2.60
2022-12-14T09:31:25.666Z,-2.60
2022-12-14T09:36:28.405Z,-2.60
2022-12-14T09:41:36.483Z,-2.60
2022-12-14T09:46:50.235Z,-2.50
2022-12-14T09:51:52.381Z,-2.50
2022-12-14T09:56:58.888Z,-2.50
2022-12-14T10:07:41.907Z,-2.40
2022-12-14T10:13:16.123Z,-2.40
2022-12-14T10:18:59.669Z,-2.30
2022-12-14T10:24:05.116Z,-2.20
2022-12-14T10:29:15.072Z,-2.20
2022-12-14T10:34:19.630Z,-2.10
2022-12-14T10:39:49.363Z,-2.10
2022-12-14T10:45:31.596Z,-2.00
2022-12-14T10:50:50.230Z,-2.00
2022-12-14T10:55:53.939Z,-1.80
2022-12-14T11:00:55.807Z,-1.80
2022-12-14T11:06:11.204Z,-1.70
2022-12-14T11:11:19.149Z,-1.70
2022-12-14T11:16:33.657Z,-1.60
2022-12-14T11:21:38.554Z,-1.60
2022-12-14T11:26:42.442Z,-1.50
2022-12-14T11:31:46.274Z,-1.50
2022-12-14T11:36:48.311Z,-1.40
2022-12-14T11:41:59.165Z,-1.40
2022-12-14T11:47:03.580Z,-1.40
2022-12-14T11:52:05.379Z,-1.40
2022-12-14T11:57:13.237Z,-1.30
2022-12-14T12:02:32.787Z,-1.30
2022-12-14T12:07:40.644Z,-1.20
2022-12-14T12:12:59.946Z,-1.20
2022-12-14T12:18:22.193Z,-1.20
2022-12-14T12:23:32.079Z,-1.10
2022-12-14T12:28:36.697Z,-1.10
2022-12-14T12:33:57.575Z,-1.00
2022-12-14T12:39:24.994Z,-0.90
2022-12-14T12:44:39.009Z,-0.90
2022-12-14T12:49:40.952Z,-0.80
2022-12-14T12:54:53.351Z,-0.80
2022-12-14T12:59:56.240Z,-0.80
2022-12-14T13:05:22.067Z,-0.70
2022-12-14T13:10:32.069Z,-0.70
2022-12-14T13:15:41.223Z,-0.70
2022-12-14T13:20:43.114Z,-0.70
2022-12-14T13:26:11.534Z,-0.70
2022-12-14T13:31:20.527Z,-0.60
2022-12-14T13:36:36.049Z,-0.60
2022-12-14T13:42:25.413Z,-0.50
2022-12-14T13:47:45.128Z,-0.50
2022-12-14T13:52:48.154Z,-0.50
2022-12-14T13:57:50.006Z,-0.60
2022-12-14T14:02:55.713Z,-0.50
2022-12-14T14:08:02.196Z,-0.50
2022-12-14T14:13:28.783Z,-0.50
2022-12-14T14:18:32.931Z,-0.50
2022-12-14T14:23:35.874Z,-0.40
2022-12-14T14:28:38.581Z,-0.40
2022-12-14T14:33:46.724Z,-0.40
2022-12-14T14:38:50.711Z,-0.40
2022-12-14T14:43:56.271Z,-0.40
2022-12-14T14:48:58.111Z,-0.50
2022-12-14T14:54:44.773Z,-0.50
2022-12-14T14:59:43.942Z,-0.50
2022-12-14T15:04:57.183Z,-0.50
2022-12-14T15:10:24.258Z,-0.50
2022-12-14T15:15:43.059Z,-0.50
2022-12-14T15:20:52.727Z,-0.60
2022-12-14T15:25:59.835Z,-0.60
2022-12-14T15:31:01.900Z,-0.70
2022-12-14T15:36:07.112Z,-0.70
2022-12-14T15:41:17.103Z,-0.80
2022-12-14T15:46:30.881Z,-0.90
2022-12-14T15:51:38.111Z,-0.90
2022-12-14T15:56:45.193Z,-0.90
2022-12-14T16:01:54.238Z,-0.90
2022-12-14T16:07:08.635Z,-1.00
2022-12-14T16:12:15.686Z,-1.10
2022-12-14T16:17:22.340Z,-1.10
2022-12-14T16:22:32.138Z,-1.10
2022-12-14T16:27:42.456Z,-1.20
2022-12-14T16:32:49.848Z,-1.20
2022-12-14T16:37:54.370Z,-1.30
2022-12-14T16:42:56.433Z,-1.30
2022-12-14T16:48:07.021Z,-1.30
2022-12-14T16:53:22.365Z,-1.40
2022-12-14T16:58:24.219Z,-1.50
2022-12-14T17:03:27.491Z,-1.50
2022-12-14T17:08:30.991Z,-1.60
